createdAt,value
2022-11-04T00:00:13.481Z,97333.97
2022-11-04T00:02:40.155Z,97342.59
2022-11-04T00:05:07.289Z,97352.66
2022-11-04T00:07:52.543Z,97360.13
2022-11-04T00:10:39.152Z,97364.84
2022-11-04T00:13:06.350Z,97351.66
2022-11-04T00:15:55.533Z,97344.84
2022-11-04T00:18:22.058Z,97343.91
2022-11-04T00:21:07.409Z,97343.16
2022-11-04T00:24:00.098Z,97359.44
2022-11-04T00:26:46.875Z,97358.69
2022-11-04T00:29:13.390Z,97352.91
2022-11-04T00:31:58.585Z,97353.47
2022-11-04T00:34:25.147Z,97347.53
2022-11-04T00:36:51.695Z,97355.50
2022-11-04T00:39:18.366Z,97353.91
2022-11-04T00:41:44.950Z,97351.13
2022-11-04T00:44:11.752Z,97360.09
2022-11-04T00:46:38.464Z,97352.13
2022-11-04T00:49:05.245Z,97353.91
2022-11-04T00:51:31.923Z,97357.31
2022-11-04T00:53:58.607Z,97352.84
2022-11-04T00:56:25.239Z,97361.34
2022-11-04T00:58:51.905Z,97357.34
2022-11-04T01:01:19.276Z,97360.78
2022-11-04T01:03:51.344Z,97380.28
2022-11-04T01:06:18.929Z,97365.00
2022-11-04T01:08:45.762Z,97374.63
2022-11-04T01:11:13.711Z,97371.44
2022-11-04T01:13:41.285Z,97376.28
2022-11-04T01:16:11.236Z,97370.84
2022-11-04T01:18:38.187Z,97370.56
2022-11-04T01:21:06.355Z,97377.41
2022-11-04T01:23:34.760Z,97381.94
2022-11-04T01:26:01.429Z,97398.34
2022-11-04T01:28:27.990Z,97398.47
2022-11-04T01:30:54.561Z,97408.41
2022-11-04T01:33:21.193Z,97401.66
2022-11-04T01:35:48.776Z,97400.06
2022-11-04T01:38:15.395Z,97398.53
2022-11-04T01:40:41.970Z,97390.19
2022-11-04T01:43:17.167Z,97391.84
2022-11-04T01:45:56.893Z,97388.13
2022-11-04T01:48:32.267Z,97387.72
2022-11-04T01:50:59.762Z,97395.50
2022-11-04T01:53:29.176Z,97387.47
2022-11-04T01:55:57.257Z,97391.84
2022-11-04T01:58:26.817Z,97393.78
2022-11-04T02:00:53.450Z,97380.94
2022-11-04T02:03:33.720Z,97386.56
2022-11-04T02:06:00.571Z,97380.94
2022-11-04T02:08:27.433Z,97386.81
2022-11-04T02:10:59.563Z,97388.41
2022-11-04T02:13:27.639Z,97376.81
2022-11-04T02:16:20.910Z,97369.00
2022-11-04T02:19:15.367Z,97367.34
2022-11-04T02:21:55.855Z,97366.00
2022-11-04T02:24:40.574Z,97360.72
2022-11-04T02:27:19.162Z,97366.56
2022-11-04T02:30:07.933Z,97366.56
2022-11-04T02:33:03.722Z,97385.69
2022-11-04T02:35:53.531Z,97381.28
2022-11-04T02:38:32.397Z,97380.34
2022-11-04T02:41:21.983Z,97386.09
2022-11-04T02:44:17.640Z,97381.28
2022-11-04T02:46:51.590Z,97377.69
2022-11-04T02:49:23.146Z,97380.84
2022-11-04T02:51:53.677Z,97382.22
2022-11-04T02:54:49.309Z,97393.34
2022-11-04T02:57:19.637Z,97407.09
2022-11-04T02:59:48.300Z,97407.09
2022-11-04T03:02:19.016Z,97392.38
2022-11-04T03:04:47.582Z,97393.56
2022-11-04T03:07:16.159Z,97408.50
2022-11-04T03:09:46.482Z,97398.09
2022-11-04T03:12:15.789Z,97393.97
2022-11-04T03:15:07.006Z,97393.34
2022-11-04T03:18:03.703Z,97394.63
2022-11-04T03:20:31.573Z,97389.19
2022-11-04T03:23:00.186Z,97392.66
2022-11-04T03:25:32.583Z,97410.53
2022-11-04T03:28:16.380Z,97414.50
2022-11-04T03:30:45.976Z,97410.13
2022-11-04T03:33:19.587Z,97408.13
2022-11-04T03:35:46.469Z,97413.53
2022-11-04T03:38:13.041Z,97417.44
2022-11-04T03:40:39.882Z,97426.25
2022-11-04T03:43:15.543Z,97436.69
2022-11-04T03:45:42.857Z,97434.19
2022-11-04T03:48:10.470Z,97439.03
2022-11-04T03:50:41.778Z,97444.56
2022-11-04T03:53:09.354Z,97438.56
2022-11-04T03:56:00.843Z,97459.09
2022-11-04T03:58:45.478Z,97450.16
2022-11-04T04:01:37.567Z,97461.41
2022-11-04T04:04:27.259Z,97459.03
2022-11-04T04:06:59.198Z,97460.56
2022-11-04T04:09:32.052Z,97451.16
2022-11-04T04:12:05.656Z,97444.13
2022-11-04T04:14:50.299Z,97448.25
2022-11-04T04:17:36.932Z,97440.03
2022-11-04T04:20:10.962Z,97448.41
2022-11-04T04:22:42.392Z,97456.19
2022-11-04T04:25:29.543Z,97446.78
2022-11-04T04:27:56.177Z,97442.31
2022-11-04T04:30:23.565Z,97432.09
2022-11-04T04:33:00.212Z,97435.75
2022-11-04T04:35:43.368Z,97446.38
2022-11-04T04:38:31.524Z,97452.34
2022-11-04T04:41:22.608Z,97462.03
2022-11-04T04:44:08.124Z,97461.75
2022-11-04T04:46:36.537Z,97456.63
2022-11-04T04:49:08.933Z,97455.91
2022-11-04T04:51:39.420Z,97458.00
2022-11-04T04:54:06.084Z,97453.06
2022-11-04T04:56:32.755Z,97446.47
2022-11-04T04:58:59.475Z,97435.78
2022-11-04T05:01:26.071Z,97417.25
2022-11-04T05:03:53.798Z,97417.50
2022-11-04T05:06:20.526Z,97412.69
2022-11-04T05:08:47.191Z,97389.56
2022-11-04T05:11:13.878Z,97373.53
2022-11-04T05:13:40.840Z,97369.13
2022-11-04T05:16:09.714Z,97369.97
2022-11-04T05:18:37.108Z,97363.72
2022-11-04T05:21:05.459Z,97366.97
2022-11-04T05:23:32.035Z,97365.31
2022-11-04T05:25:59.167Z,97379.50
2022-11-04T05:28:25.678Z,97380.69
2022-11-04T05:30:52.303Z,97389.22
2022-11-04T05:33:18.875Z,97391.25
2022-11-04T05:35:45.405Z,97395.63
2022-11-04T05:38:11.906Z,97394.78
2022-11-04T05:40:38.483Z,97389.53
2022-11-04T05:43:05.006Z,97390.69
2022-11-04T05:45:31.652Z,97396.84
2022-11-04T05:48:02.981Z,97402.56
2022-11-04T05:50:30.818Z,97404.25
2022-11-04T05:53:01.008Z,97408.06
2022-11-04T05:55:27.584Z,97410.53
2022-11-04T05:57:54.246Z,97397.28
2022-11-04T06:00:21.226Z,97396.66
2022-11-04T06:02:47.841Z,97392.63
2022-11-04T06:05:14.431Z,97384.09
2022-11-04T06:07:41.208Z,97384.56
2022-11-04T06:10:08.106Z,97379.44
2022-11-04T06:12:34.670Z,97394.97
2022-11-04T06:15:01.246Z,97391.91
2022-11-04T06:17:27.890Z,97399.97
2022-11-04T06:19:54.433Z,97410.94
2022-11-04T06:22:22.514Z,97414.00
2022-11-04T06:24:49.453Z,97407.25
2022-11-04T06:27:16.350Z,97412.81
2022-11-04T06:29:43.009Z,97423.88
2022-11-04T06:32:17.852Z,97437.03
2022-11-04T06:34:44.711Z,97439.94
2022-11-04T06:37:11.267Z,97435.72
2022-11-04T06:39:37.878Z,97437.94
2022-11-04T06:42:05.149Z,97434.69
2022-11-04T06:44:33.745Z,97447.81
2022-11-04T06:47:00.441Z,97441.50
2022-11-04T06:49:27.064Z,97441.50
2022-11-04T06:51:53.790Z,97444.41
2022-11-04T06:54:20.401Z,97448.50
2022-11-04T06:56:47.452Z,97440.91
2022-11-04T06:59:20.160Z,97448.91
2022-11-04T07:01:47.073Z,97440.72
2022-11-04T07:04:14.156Z,97437.91
2022-11-04T07:06:44.720Z,97442.78
2022-11-04T07:09:15.854Z,97436.09
2022-11-04T07:11:44.111Z,97433.78
2022-11-04T07:14:11.203Z,97430.47
2022-11-04T07:16:37.955Z,97421.34
2022-11-04T07:19:04.978Z,97423.66
2022-11-04T07:21:31.954Z,97413.84
2022-11-04T07:23:58.791Z,97414.50
2022-11-04T07:26:25.357Z,97409.28
2022-11-04T07:28:51.912Z,97409.41
2022-11-04T07:31:18.731Z,97410.59
2022-11-04T07:33:52.998Z,97410.03
2022-11-04T07:36:20.328Z,97407.75
2022-11-04T07:38:47.074Z,97408.09
2022-11-04T07:41:14.200Z,97413.94
2022-11-04T07:43:40.955Z,97405.44
2022-11-04T07:46:11.159Z,97410.59
2022-11-04T07:48:38.059Z,97419.75
2022-11-04T07:51:06.206Z,97412.88
2022-11-04T07:53:32.804Z,97405.84
2022-11-04T07:55:59.378Z,97410.31
2022-11-04T07:58:25.973Z,97398.50
2022-11-04T08:00:59.354Z,97400.22
2022-11-04T08:03:26.020Z,97404.59
2022-11-04T08:05:59.987Z,97395.19
2022-11-04T08:08:27.507Z,97393.47
2022-11-04T08:10:56.966Z,97394.97
2022-11-04T08:13:24.269Z,97388.66
2022-11-04T08:15:52.306Z,97401.91
2022-11-04T08:18:19.065Z,97399.38
2022-11-04T08:20:52.539Z,97392.78
2022-11-04T08:23:19.306Z,97397.56
2022-11-04T08:25:46.498Z,97392.09
2022-11-04T08:28:17.411Z,97394.69
2022-11-04T08:30:58.833Z,97405.34
2022-11-04T08:33:26.978Z,97410.22
2022-11-04T08:35:55.134Z,97418.47
2022-11-04T08:38:21.911Z,97416.63
2022-11-04T08:40:48.495Z,97420.38
2022-11-04T08:43:15.096Z,97420.69
2022-11-04T08:45:43.667Z,97415.34
2022-11-04T08:48:10.775Z,97417.22
2022-11-04T08:50:37.554Z,97408.84
2022-11-04T08:53:05.270Z,97406.16
2022-11-04T08:55:32.501Z,97399.13
2022-11-04T08:58:00.043Z,97388.56
2022-11-04T09:00:26.865Z,97394.78
2022-11-04T09:02:55.446Z,97400.56
2022-11-04T09:05:22.312Z,97408.75
2022-11-04T09:07:48.814Z,97419.72
2022-11-04T09:10:15.515Z,97424.63
2022-11-04T09:12:42.971Z,97435.84
2022-11-04T09:15:09.919Z,97431.63
2022-11-04T09:17:36.636Z,97435.97
2022-11-04T09:20:03.917Z,97433.75
2022-11-04T09:22:30.612Z,97437.38
2022-11-04T09:24:57.246Z,97434.00
2022-11-04T09:27:23.939Z,97444.09
2022-11-04T09:29:50.586Z,97439.44
2022-11-04T09:32:17.170Z,97443.94
2022-11-04T09:34:43.698Z,97443.53
2022-11-04T09:37:10.441Z,97442.78
2022-11-04T09:39:36.969Z,97440.97
2022-11-04T09:42:21.994Z,97436.00
2022-11-04T09:45:21.599Z,97438.16
2022-11-04T09:47:53.042Z,97439.16
2022-11-04T09:50:29.527Z,97436.00
2022-11-04T09:53:08.845Z,97433.84
2022-11-04T09:55:42.063Z,97426.56
2022-11-04T09:58:12.649Z,97421.94
2022-11-04T10:00:40.056Z,97422.16
2022-11-04T10:03:30.373Z,97415.88
2022-11-04T10:05:56.985Z,97423.25
2022-11-04T10:08:35.137Z,97417.56
2022-11-04T10:11:05.575Z,97425.56
2022-11-04T10:13:56.886Z,97424.59
2022-11-04T10:16:29.548Z,97421.19
2022-11-04T10:19:38.115Z,97412.94
2022-11-04T10:22:11.608Z,97419.09
2022-11-04T10:25:00.086Z,97407.13
2022-11-04T10:27:29.435Z,97408.22
2022-11-04T10:30:02.338Z,97405.94
2022-11-04T10:32:33.728Z,97403.22
2022-11-04T10:35:20.453Z,97402.97
2022-11-04T10:37:48.724Z,97404.44
2022-11-04T10:40:25.787Z,97403.44
2022-11-04T10:42:53.472Z,97405.59
2022-11-04T10:45:23.310Z,97403.44
2022-11-04T10:48:01.003Z,97396.78
2022-11-04T10:50:40.006Z,97394.34
2022-11-04T10:53:13.639Z,97393.97
2022-11-04T10:55:49.357Z,97389.84
2022-11-04T10:58:20.278Z,97388.94
2022-11-04T11:00:47.044Z,97389.75
2022-11-04T11:03:27.509Z,97390.00
2022-11-04T11:06:09.624Z,97393.66
2022-11-04T11:08:39.602Z,97384.25
2022-11-04T11:11:09.283Z,97391.50
2022-11-04T11:13:38.362Z,97375.41
2022-11-04T11:16:26.575Z,97375.06
2022-11-04T11:19:15.048Z,97381.28
2022-11-04T11:21:52.791Z,97378.81
2022-11-04T11:24:27.564Z,97367.75
2022-11-04T11:26:56.946Z,97379.47
2022-11-04T11:29:42.018Z,97371.53
2022-11-04T11:32:29.993Z,97372.44
2022-11-04T11:35:01.763Z,97365.38
2022-11-04T11:37:31.178Z,97353.50
2022-11-04T11:39:57.946Z,97361.56
2022-11-04T11:42:24.906Z,97357.13
2022-11-04T11:44:56.687Z,97352.34
2022-11-04T11:47:28.087Z,97353.09
2022-11-04T11:50:20.880Z,97354.16
2022-11-04T11:52:48.514Z,97355.97
2022-11-04T11:55:29.195Z,97356.50
2022-11-04T12:01:10.107Z,97349.78
2022-11-04T12:09:47.581Z,97342.81
2022-11-04T12:12:20.825Z,97350.59
2022-11-04T12:15:20.444Z,97346.72
2022-11-04T12:17:56.607Z,97350.72
2022-11-04T12:20:26.043Z,97351.31
2022-11-04T12:23:23.169Z,97351.13
2022-11-04T12:26:19.563Z,97357.38
2022-11-04T12:28:51.940Z,97350.22
2022-11-04T12:31:27.743Z,97351.88
2022-11-04T12:34:18.585Z,97352.97
2022-11-04T12:37:04.721Z,97366.63
2022-11-04T12:39:57.455Z,97365.34
2022-11-04T12:42:57.804Z,97367.13
2022-11-04T12:45:34.619Z,97378.66
2022-11-04T12:48:07.644Z,97377.69
2022-11-04T12:51:15.853Z,97373.94
2022-11-04T12:54:02.460Z,97370.31
2022-11-04T12:56:38.057Z,97373.94
2022-11-04T12:59:21.880Z,97376.78
2022-11-04T13:01:53.212Z,97374.03
2022-11-04T13:04:31.903Z,97380.81
2022-11-04T13:07:01.874Z,97378.69
2022-11-04T13:09:39.138Z,97380.94
2022-11-04T13:12:15.141Z,97388.19
2022-11-04T13:14:46.539Z,97388.72
2022-11-04T13:17:17.274Z,97386.25
2022-11-04T13:19:53.337Z,97393.31
2022-11-04T13:22:32.964Z,97396.53
2022-11-04T13:25:13.717Z,97401.00
2022-11-04T13:27:46.390Z,97390.31
2022-11-04T13:30:23.081Z,97389.47
2022-11-04T13:33:26.659Z,97384.22
2022-11-04T13:36:02.198Z,97379.63
2022-11-04T13:38:33.940Z,97383.66
2022-11-04T13:41:32.863Z,97383.63
2022-11-04T13:44:05.756Z,97394.16
2022-11-04T13:46:33.987Z,97385.00
2022-11-04T13:49:15.683Z,97390.66
2022-11-04T13:51:48.051Z,97390.75
2022-11-04T13:54:24.596Z,97396.34
2022-11-04T13:56:51.261Z,97391.16
2022-11-04T13:59:22.811Z,97401.09
2022-11-04T14:01:49.583Z,97408.22
2022-11-04T14:04:27.712Z,97408.81
2022-11-04T14:07:04.058Z,97410.91
2022-11-04T14:09:42.602Z,97415.03
2022-11-04T14:12:09.053Z,97416.88
2022-11-04T14:14:37.044Z,97416.16
2022-11-04T14:17:07.231Z,97418.81
2022-11-04T14:19:55.922Z,97425.09
2022-11-04T14:22:30.261Z,97422.41
2022-11-04T14:25:03.385Z,97424.28
2022-11-04T14:27:40.705Z,97431.34
2022-11-04T14:30:13.689Z,97432.41
2022-11-04T14:32:41.763Z,97435.16
2022-11-04T14:35:17.351Z,97433.75
2022-11-04T14:37:44.062Z,97439.41
2022-11-04T14:40:25.413Z,97434.19
2022-11-04T14:42:56.306Z,97434.69
2022-11-04T14:45:37.870Z,97449.97
2022-11-04T14:48:16.148Z,97444.56
2022-11-04T14:50:45.454Z,97449.28
2022-11-04T14:53:19.513Z,97454.91
2022-11-04T14:55:46.077Z,97462.41
2022-11-04T14:58:28.002Z,97459.41
2022-11-04T15:00:59.067Z,97462.66
2022-11-04T15:04:09.284Z,97469.81
2022-11-04T15:06:34.434Z,97470.56
2022-11-04T15:09:20.629Z,97475.44
2022-11-04T15:12:05.868Z,97475.84
2022-11-04T15:14:32.422Z,97471.03
2022-11-04T15:16:59.194Z,97469.25
2022-11-04T15:19:31.953Z,97472.41
2022-11-04T15:22:06.849Z,97477.25
2022-11-04T15:24:34.877Z,97481.72
2022-11-04T15:27:05.083Z,97476.88
2022-11-04T15:29:32.286Z,97473.59
2022-11-04T15:32:05.114Z,97473.09
2022-11-04T15:34:33.493Z,97471.06
2022-11-04T15:37:04.244Z,97471.28
2022-11-04T15:39:34.101Z,97481.63
2022-11-04T15:42:26.540Z,97480.59
2022-11-04T15:44:56.233Z,97493.69
2022-11-04T15:47:27.237Z,97491.78
2022-11-04T15:50:02.471Z,97485.75
2022-11-04T15:52:29.740Z,97484.28
2022-11-04T15:55:00.562Z,97488.88
2022-11-04T15:57:34.267Z,97491.56
2022-11-04T16:00:10.024Z,97501.50
2022-11-04T16:02:46.880Z,97505.25
2022-11-04T16:05:16.471Z,97501.66
2022-11-04T16:07:44.299Z,97506.03
2022-11-04T16:10:30.581Z,97514.31
2022-11-04T16:13:01.080Z,97510.50
2022-11-04T16:15:43.465Z,97510.81
2022-11-04T16:18:23.320Z,97513.84
2022-11-04T16:20:53.022Z,97510.50
2022-11-04T16:23:22.640Z,97514.66
2022-11-04T16:25:56.668Z,97521.94
2022-11-04T16:28:23.402Z,97525.88
2022-11-04T16:31:01.541Z,97527.53
2022-11-04T16:33:28.125Z,97529.38
2022-11-04T16:35:54.745Z,97534.91
2022-11-04T16:38:21.392Z,97536.81
2022-11-04T16:40:49.507Z,97542.91
2022-11-04T16:43:19.470Z,97543.38
2022-11-04T16:45:53.276Z,97551.53
2022-11-04T16:48:20.618Z,97554.94
2022-11-04T16:50:48.819Z,97554.25
2022-11-04T16:53:15.450Z,97561.63
2022-11-04T16:55:43.326Z,97564.00
2022-11-04T16:58:11.480Z,97564.53
2022-11-04T17:00:38.081Z,97570.72
2022-11-04T17:03:22.578Z,97572.63
2022-11-04T17:05:55.561Z,97576.47
2022-11-04T17:08:26.192Z,97578.13
2022-11-04T17:10:54.174Z,97580.19
2022-11-04T17:13:21.083Z,97587.06
2022-11-04T17:15:47.915Z,97582.44
2022-11-04T17:18:16.802Z,97585.34
2022-11-04T17:20:44.855Z,97587.41
2022-11-04T17:23:13.625Z,97592.00
2022-11-04T17:25:40.486Z,97596.81
2022-11-04T17:28:07.100Z,97602.25
2022-11-04T17:30:34.091Z,97601.22
2022-11-04T17:33:01.373Z,97602.84
2022-11-04T17:35:28.062Z,97613.81
2022-11-04T17:37:54.948Z,97618.94
2022-11-04T17:40:22.999Z,97616.72
2022-11-04T17:43:11.833Z,97612.19
2022-11-04T17:46:08.940Z,97617.56
2022-11-04T17:48:35.671Z,97629.44
2022-11-04T17:51:07.291Z,97628.25
2022-11-04T17:53:33.900Z,97627.22
2022-11-04T17:56:01.947Z,97633.69
2022-11-04T17:58:41.412Z,97639.13
2022-11-04T18:01:09.694Z,97640.75
2022-11-04T18:03:45.034Z,97646.78
2022-11-04T18:06:12.501Z,97651.88
2022-11-04T18:08:39.764Z,97659.38
2022-11-04T18:11:38.864Z,97662.00
2022-11-04T18:14:05.636Z,97672.88
2022-11-04T18:16:32.497Z,97675.81
2022-11-04T18:19:00.018Z,97680.19
2022-11-04T18:21:28.000Z,97680.66
2022-11-04T18:23:55.205Z,97681.50
2022-11-04T18:26:22.257Z,97681.22
2022-11-04T18:28:48.944Z,97687.53
2022-11-04T18:31:22.443Z,97676.97
2022-11-04T18:33:48.978Z,97681.38
2022-11-04T18:36:15.878Z,97685.31
2022-11-04T18:38:42.449Z,97685.91
2022-11-04T18:41:09.046Z,97690.13
2022-11-04T18:43:36.019Z,97693.97
2022-11-04T18:46:13.846Z,97697.16
2022-11-04T18:48:41.797Z,97700.56
2022-11-04T18:51:09.972Z,97703.91
2022-11-04T18:53:37.099Z,97699.94
2022-11-04T18:56:14.574Z,97702.88
2022-11-04T18:58:42.182Z,97704.47
2022-11-04T19:01:24.267Z,97709.03
2022-11-04T19:03:51.067Z,97721.78
2022-11-04T19:06:34.806Z,97718.13
2022-11-04T19:09:25.303Z,97731.16
2022-11-04T19:12:15.334Z,97728.38
2022-11-04T19:14:41.905Z,97734.09
2022-11-04T19:17:08.610Z,97734.22
2022-11-04T19:19:35.549Z,97730.13
2022-11-04T19:22:02.222Z,97737.47
2022-11-04T19:24:29.051Z,97745.06
2022-11-04T19:26:55.694Z,97743.44
2022-11-04T19:29:22.441Z,97754.91
2022-11-04T19:31:49.168Z,97757.50
2022-11-04T19:34:15.716Z,97762.78
2022-11-04T19:36:45.510Z,97772.75
2022-11-04T19:39:12.836Z,97777.59
2022-11-04T19:41:58.363Z,97781.84
2022-11-04T19:44:25.561Z,97780.66
2022-11-04T19:46:52.675Z,97775.53
2022-11-04T19:49:20.073Z,97789.00
2022-11-04T19:51:47.092Z,97796.19
2022-11-04T19:54:13.943Z,97787.25
2022-11-04T19:56:40.723Z,97791.78
2022-11-04T19:59:09.143Z,97799.56
2022-11-04T20:01:36.632Z,97804.34
2022-11-04T20:04:04.755Z,97801.56
2022-11-04T20:06:32.375Z,97803.75
2022-11-04T20:09:01.915Z,97807.84
2022-11-04T20:11:29.820Z,97817.00
2022-11-04T20:13:56.649Z,97815.69
2022-11-04T20:16:25.775Z,97817.72
2022-11-04T20:18:56.766Z,97813.59
2022-11-04T20:21:24.953Z,97821.81
2022-11-04T20:23:56.392Z,97832.75
2022-11-04T20:26:24.347Z,97840.28
2022-11-04T20:28:57.633Z,97835.25
2022-11-04T20:31:28.995Z,97841.38
2022-11-04T20:33:56.991Z,97840.63
2022-11-04T20:36:26.147Z,97849.84
2022-11-04T20:38:56.962Z,97840.03
2022-11-04T20:41:24.183Z,97846.31
2022-11-04T20:43:51.454Z,97856.47
2022-11-04T20:46:22.941Z,97849.78
2022-11-04T20:48:50.386Z,97859.34
2022-11-04T20:51:20.599Z,97864.59
2022-11-04T20:53:48.686Z,97865.31
2022-11-04T20:56:17.841Z,97868.25
2022-11-04T20:58:48.576Z,97869.06
2022-11-04T21:01:26.399Z,97870.56
2022-11-04T21:04:02.894Z,97873.75
2022-11-04T21:06:30.458Z,97872.44
2022-11-04T21:08:58.616Z,97878.00
2022-11-04T21:11:32.130Z,97886.19
2022-11-04T21:13:59.749Z,97891.09
2022-11-04T21:16:26.772Z,97883.63
2022-11-04T21:18:54.654Z,97881.28
2022-11-04T21:21:21.396Z,97894.16
2022-11-04T21:23:48.062Z,97901.88
2022-11-04T21:26:23.533Z,97906.28
2022-11-04T21:28:57.950Z,97909.53
2022-11-04T21:31:24.991Z,97906.66
2022-11-04T21:33:52.796Z,97907.81
2022-11-04T21:36:19.981Z,97909.00
2022-11-04T21:38:46.724Z,97909.16
2022-11-04T21:41:15.735Z,97907.09
2022-11-04T21:43:43.018Z,97908.72
2022-11-04T21:46:13.280Z,97906.53
2022-11-04T21:48:40.674Z,97905.81
2022-11-04T21:51:09.971Z,97911.75
2022-11-04T21:53:37.286Z,97917.53
2022-11-04T21:56:08.961Z,97912.38
2022-11-04T21:58:36.721Z,97917.81
2022-11-04T22:01:05.224Z,97924.72
2022-11-04T22:03:32.128Z,97926.47
2022-11-04T22:06:06.276Z,97933.06
2022-11-04T22:08:33.432Z,97927.19
2022-11-04T22:11:06.530Z,97929.09
2022-11-04T22:13:33.490Z,97926.16
2022-11-04T22:16:00.777Z,97927.31
2022-11-04T22:18:32.182Z,97935.94
2022-11-04T22:21:05.054Z,97937.00
2022-11-04T22:23:33.720Z,97936.28
2022-11-04T22:26:01.681Z,97936.22
2022-11-04T22:28:28.273Z,97941.25
2022-11-04T22:30:54.890Z,97939.28
2022-11-04T22:33:21.729Z,97944.00
2022-11-04T22:35:48.601Z,97939.31
2022-11-04T22:38:15.495Z,97932.88
2022-11-04T22:40:42.304Z,97937.75
2022-11-04T22:43:09.282Z,97947.72
2022-11-04T22:45:37.341Z,97948.31
2022-11-04T22:48:04.399Z,97951.84
2022-11-04T22:50:30.965Z,97950.34
2022-11-04T22:52:57.536Z,97959.25
2022-11-04T22:55:24.029Z,97951.09
2022-11-04T22:57:50.811Z,97951.66
2022-11-04T23:00:17.800Z,97955.75
2022-11-04T23:02:44.882Z,97954.44
2022-11-04T23:05:11.529Z,97960.16
2022-11-04T23:07:38.205Z,97956.94
2022-11-04T23:10:24.002Z,97953.47
2022-11-04T23:13:09.522Z,97959.47
2022-11-04T23:16:14.666Z,97959.91
2022-11-04T23:18:44.419Z,97954.19
2022-11-04T23:21:32.383Z,97959.44
2022-11-04T23:24:17.723Z,97965.44
2022-11-04T23:26:45.596Z,97966.31
2022-11-04T23:29:31.336Z,97968.97
2022-11-04T23:31:57.959Z,97972.66
2022-11-04T23:34:43.245Z,97966.34
2022-11-04T23:37:14.002Z,97967.66
2022-11-04T23:39:48.497Z,97974.97
2022-11-04T23:42:20.218Z,97969.72
2022-11-04T23:45:13.161Z,97972.03
2022-11-04T23:48:03.414Z,97979.94
2022-11-04T23:50:50.605Z,97984.34
2022-11-04T23:53:36.244Z,97983.44
2022-11-04T23:56:22.057Z,97991.25
2022-11-04T23:59:07.352Z,97988.16
